Time;durP1;ratioP1;P1;durP2;ratioP2;P2;SDS_P1;SDS_P2;PMS_P1;PMS_P2;Temp;Humidity;BMP_temperature;BMP_pressure;BME280_temperature;BME280_humidity;BME280_pressure;Samples;Min_cycle;Max_cycle;Signal;HPM_P1;HPM_P2
2023/10/08 00:00:49;;;;;;;10.35;6.28;;;;;22.00;101127.00;;;;2565879;23;20610;-60
2023/10/08 00:01:50;;;;;;;9.13;6.57;;;;;22.00;101136.00;;;;2578483;23;20254;-60
2023/10/08 00:02:52;;;;;;;8.02;5.93;;;;;22.00;101139.00;;;;2562610;23;20548;-60
2023/10/08 00:03:53;;;;;;;10.65;5.90;;;;;22.00;101148.00;;;;2578319;23;20200;-64
2023/10/08 00:05:00;;;;;;;7.05;6.10;;;;;22.00;101132.00;;;;2565538;23;20591;-60
2023/10/08 00:06:06;;;;;;;9.60;6.80;;;;;22.00;101137.00;;;;2566312;23;20228;-60
2023/10/08 00:07:07;;;;;;;7.93;5.57;;;;;22.00;101141.00;;;;2563048;23;20336;-61
2023/10/08 00:08:09;;;;;;;6.67;5.70;;;;;22.00;101134.00;;;;2577450;23;20192;-60
2023/10/08 00:09:11;;;;;;;8.82;6.30;;;;;22.00;101130.00;;;;2578875;23;20446;-60
2023/10/08 00:10:13;;;;;;;8.48;6.20;;;;;21.90;101126.00;;;;2564310;23;20862;-60
2023/10/08 00:11:15;;;;;;;8.45;5.82;;;;;22.00;101132.00;;;;2565216;23;20201;-61
2023/10/08 00:12:16;;;;;;;7.95;5.88;;;;;22.00;101134.00;;;;2562910;23;20200;-60
2023/10/08 00:13:17;;;;;;;8.88;6.00;;;;;22.00;101126.00;;;;2564724;23;20207;-60
2023/10/08 00:14:21;;;;;;;7.23;5.97;;;;;22.00;101144.00;;;;2553313;23;20196;-60
2023/10/08 00:15:25;;;;;;;6.97;4.95;;;;;21.20;101138.00;;;;2565921;23;20240;-61
2023/10/08 00:16:28;;;;;;;7.43;6.32;;;;;22.00;101149.00;;;;2578237;23;20195;-61
2023/10/08 00:17:28;;;;;;;8.23;5.60;;;;;22.00;101141.00;;;;2563206;23;20572;-60
2023/10/08 00:18:29;;;;;;;7.50;5.80;;;;;22.00;101133.00;;;;2578841;23;20299;-60
2023/10/08 00:19:35;;;;;;;7.60;6.03;;;;;22.00;101137.00;;;;2564831;23;20833;-60
2023/10/08 00:20:58;;;;;;;8.57;5.78;;;;;22.00;101142.00;;;;2566646;23;20201;-60
2023/10/08 00:22:03;;;;;;;8.65;5.70;;;;;22.00;101137.00;;;;2562661;23;20262;-60
2023/10/08 00:23:07;;;;;;;7.80;5.22;;;;;22.00;101144.00;;;;2578210;23;20211;-60
2023/10/08 00:24:09;;;;;;;7.40;5.90;;;;;22.00;101139.00;;;;2578760;23;20200;-61
2023/10/08 00:25:11;;;;;;;9.13;5.88;;;;;22.00;101136.00;;;;2577624;23;20313;-61
2023/10/08 00:26:12;;;;;;;9.63;5.85;;;;;22.00;101145.00;;;;2578084;23;21091;-61
2023/10/08 00:27:14;;;;;;;6.30;5.00;;;;;22.00;101157.00;;;;2560582;23;20200;-60
2023/10/08 00:28:15;;;;;;;7.28;5.60;;;;;22.00;101164.00;;;;2552718;23;20197;-60
2023/10/08 00:29:15;;;;;;;6.37;5.43;;;;;21.80;101160.00;;;;2552919;23;20198;-60
2023/10/08 00:30:17;;;;;;;7.43;5.00;;;;;22.00;101160.00;;;;2565249;23;20200;-61
2023/10/08 00:31:18;;;;;;;9.52;5.15;;;;;22.00;101159.00;;;;2565297;23;20231;-60
2023/10/08 00:32:18;;;;;;;7.23;5.40;;;;;22.00;101162.00;;;;2563701;23;20519;-61
2023/10/08 00:33:18;;;;;;;7.60;5.70;;;;;22.00;101158.00;;;;2564969;23;20193;-61
2023/10/08 00:34:19;;;;;;;8.97;5.93;;;;;22.00;101165.00;;;;2565049;23;20200;-60
2023/10/08 00:35:20;;;;;;;9.10;5.28;;;;;22.00;101171.00;;;;2565246;23;20193;-60
2023/10/08 00:36:20;;;;;;;7.27;5.77;;;;;22.00;101170.00;;;;2565019;23;20538;-60
2023/10/08 00:37:23;;;;;;;6.70;5.43;;;;;22.00;101165.00;;;;2563363;23;20192;-60
2023/10/08 00:38:31;;;;;;;9.52;5.57;;;;;22.00;101163.00;;;;2577554;23;20199;-60
2023/10/08 00:39:35;;;;;;;8.68;5.60;;;;;22.00;101161.00;;;;2578213;23;20200;-61
2023/10/08 00:40:38;;;;;;;8.57;5.05;;;;;22.00;101159.00;;;;2578125;23;20646;-60
2023/10/08 00:41:42;;;;;;;7.22;4.47;;;;;22.00;101162.00;;;;2578490;23;20287;-61
2023/10/08 00:42:45;;;;;;;7.70;5.13;;;;;22.00;101156.00;;;;2563151;23;20200;-60
2023/10/08 00:43:46;;;;;;;7.35;4.82;;;;;22.00;101155.00;;;;2564975;23;20208;-60
2023/10/08 00:44:51;;;;;;;9.70;5.20;;;;;22.00;101163.00;;;;2566101;23;20236;-60
2023/10/08 00:45:52;;;;;;;7.40;5.03;;;;;22.00;101167.00;;;;2578012;23;20204;-61
2023/10/08 00:46:54;;;;;;;6.18;4.90;;;;;22.00;101170.00;;;;2564759;23;20220;-60
2023/10/08 00:47:56;;;;;;;6.72;5.45;;;;;22.00;101169.00;;;;2547740;23;20667;-61
2023/10/08 00:48:57;;;;;;;7.13;4.85;;;;;22.00;101164.00;;;;2565933;23;20200;-60
2023/10/08 00:50:08;;;;;;;8.47;5.33;;;;;22.00;101168.00;;;;2552683;23;20621;-61
2023/10/08 00:51:18;;;;;;;7.03;4.43;;;;;22.00;101167.00;;;;2555374;23;20197;-61
2023/10/08 00:52:29;;;;;;;7.18;4.85;;;;;22.00;101160.00;;;;2537034;23;20208;-60
2023/10/08 00:53:29;;;;;;;6.13;5.15;;;;;22.00;101165.00;;;;2548047;23;20254;-61
2023/10/08 00:54:32;;;;;;;8.37;5.80;;;;;22.00;101172.00;;;;2565345;23;20259;-61
2023/10/08 00:55:34;;;;;;;5.97;4.65;;;;;22.00;101165.00;;;;2565026;23;20189;-61
2023/10/08 00:56:56;;;;;;;7.65;5.18;;;;;22.00;101160.00;;;;2553546;23;20197;-60
2023/10/08 00:57:58;;;;;;;6.47;5.15;;;;;22.00;101150.00;;;;2542718;23;20208;-61
2023/10/08 00:58:59;;;;;;;6.80;4.95;;;;;22.00;101165.00;;;;2549339;23;20201;-61
2023/10/08 00:59:59;;;;;;;6.40;4.40;;;;;21.90;101154.00;;;;2539994;23;20222;-61
2023/10/08 01:01:00;;;;;;;8.60;5.43;;;;;22.00;101164.00;;;;2552915;23;20193;-60
2023/10/08 01:02:04;;;;;;;8.90;5.37;;;;;21.90;101158.00;;;;2549711;23;20220;-60
2023/10/08 01:03:14;;;;;;;7.18;5.15;;;;;21.90;101144.00;;;;2565438;23;20646;-60
2023/10/08 01:04:16;;;;;;;8.10;4.88;;;;;21.90;101164.00;;;;2578119;23;20201;-60
2023/10/08 01:05:20;;;;;;;6.78;4.97;;;;;21.90;101162.00;;;;2565351;23;20251;-59
2023/10/08 01:06:21;;;;;;;7.30;4.50;;;;;22.00;101162.00;;;;2541151;23;20191;-60
2023/10/08 01:07:21;;;;;;;6.07;4.23;;;;;22.00;101173.00;;;;2536766;23;20250;-60
2023/10/08 01:08:34;;;;;;;7.00;4.70;;;;;21.90;101164.00;;;;2565391;23;20192;-60
2023/10/08 01:09:37;;;;;;;6.93;5.00;;;;;22.00;101153.00;;;;2566472;23;20499;-60
2023/10/08 01:10:40;;;;;;;7.40;4.53;;;;;21.90;101166.00;;;;2565091;23;20197;-60
2023/10/08 01:11:46;;;;;;;10.77;5.15;;;;;21.90;101179.00;;;;2565836;23;20268;-61
2023/10/08 01:13:03;;;;;;;7.30;4.90;;;;;21.90;101171.00;;;;2562090;23;20200;-60
2023/10/08 01:14:07;;;;;;;7.40;4.68;;;;;21.90;101169.00;;;;2577381;23;20266;-60
2023/10/08 01:15:16;;;;;;;8.52;5.25;;;;;21.90;101181.00;;;;2565151;23;20201;-60
2023/10/08 01:16:18;;;;;;;7.57;4.80;;;;;21.90;101178.00;;;;2567507;23;20532;-59
2023/10/08 01:17:19;;;;;;;7.38;4.72;;;;;21.90;101172.00;;;;2562723;23;20208;-60
2023/10/08 01:18:29;;;;;;;6.95;4.53;;;;;21.90;101169.00;;;;2578229;23;20200;-58
2023/10/08 01:19:31;;;;;;;6.70;4.63;;;;;21.90;101168.00;;;;2578216;23;20261;-57
2023/10/08 01:20:34;;;;;;;5.55;4.40;;;;;21.90;101170.00;;;;2578566;23;20200;-58
2023/10/08 01:21:34;;;;;;;9.15;5.20;;;;;21.90;101173.00;;;;2564846;23;20205;-59
2023/10/08 01:22:38;;;;;;;6.90;4.93;;;;;21.90;101165.00;;;;2550079;23;20208;-61
2023/10/08 01:23:39;;;;;;;8.02;4.75;;;;;21.90;101172.00;;;;2577889;23;20566;-60
2023/10/08 01:24:40;;;;;;;6.47;4.60;;;;;21.40;101180.00;;;;2578745;23;20196;-60
2023/10/08 01:25:41;;;;;;;7.18;4.75;;;;;21.90;101176.00;;;;2577883;23;20844;-60
2023/10/08 01:26:42;;;;;;;6.40;5.00;;;;;21.90;101174.00;;;;2553203;23;20201;-60
2023/10/08 01:27:42;;;;;;;6.47;4.80;;;;;21.90;101186.00;;;;2537169;23;20205;-60
2023/10/08 01:28:43;;;;;;;5.60;4.53;;;;;21.90;101182.00;;;;2564951;23;20325;-59
2023/10/08 01:29:44;;;;;;;7.32;5.25;;;;;21.90;101195.00;;;;2578271;23;20636;-60
2023/10/08 01:30:46;;;;;;;6.33;4.70;;;;;21.90;101196.00;;;;2578274;23;20188;-60
2023/10/08 01:31:48;;;;;;;8.80;4.95;;;;;21.90;101192.00;;;;2578898;23;20211;-60
2023/10/08 01:32:49;;;;;;;7.63;5.40;;;;;21.90;101153.00;;;;2561545;23;20204;-60
2023/10/08 01:33:56;;;;;;;7.50;4.70;;;;;21.90;101183.00;;;;2565514;23;20189;-59
2023/10/08 01:34:59;;;;;;;5.90;4.85;;;;;21.90;101192.00;;;;2566043;23;20196;-59
2023/10/08 01:36:12;;;;;;;6.38;4.50;;;;;21.90;101190.00;;;;2578646;23;20433;-60
2023/10/08 01:37:17;;;;;;;6.32;4.70;;;;;21.90;101194.00;;;;2550127;23;20197;-60
2023/10/08 01:38:23;;;;;;;6.97;4.25;;;;;21.90;101177.00;;;;2556275;23;20292;-59
2023/10/08 01:39:23;;;;;;;7.40;4.65;;;;;21.90;101190.00;;;;2566456;23;20205;-64
2023/10/08 01:40:29;;;;;;;7.82;4.80;;;;;21.90;101182.00;;;;2577922;23;20215;-59
2023/10/08 01:41:30;;;;;;;8.38;4.60;;;;;21.90;101192.00;;;;2578459;23;20262;-59
2023/10/08 01:42:33;;;;;;;5.63;4.50;;;;;21.90;101188.00;;;;2562904;23;20910;-59
2023/10/08 01:43:33;;;;;;;7.38;4.85;;;;;21.90;101189.00;;;;2577089;23;20261;-60
2023/10/08 01:44:35;;;;;;;7.50;4.40;;;;;21.90;101175.00;;;;2578072;23;20234;-59
2023/10/08 01:45:42;;;;;;;8.02;4.85;;;;;21.90;101193.00;;;;2565363;23;20193;-60
2023/10/08 01:46:43;;;;;;;8.00;5.05;;;;;21.90;101186.00;;;;2554235;23;20193;-61
2023/10/08 01:47:44;;;;;;;6.70;4.60;;;;;21.90;101182.00;;;;2551270;23;20991;-59
2023/10/08 01:48:44;;;;;;;7.30;4.90;;;;;21.90;101190.00;;;;2565162;23;20205;-60
2023/10/08 01:49:46;;;;;;;6.50;4.60;;;;;21.90;101172.00;;;;2552817;23;20853;-60
2023/10/08 01:50:47;;;;;;;9.27;4.68;;;;;21.90;101170.00;;;;2552872;23;20843;-59
2023/10/08 01:51:49;;;;;;;7.00;4.50;;;;;21.90;101164.00;;;;2552795;23;20205;-59
2023/10/08 01:52:49;;;;;;;5.38;4.45;;;;;21.90;101169.00;;;;2563026;23;20220;-60
2023/10/08 01:53:53;;;;;;;6.20;4.60;;;;;21.90;101174.00;;;;2578235;23;20200;-60
2023/10/08 01:54:54;;;;;;;5.90;4.40;;;;;21.90;101174.00;;;;2577999;23;20586;-60
2023/10/08 01:55:55;;;;;;;10.70;4.63;;;;;21.90;101171.00;;;;2578446;23;20196;-60
2023/10/08 01:56:55;;;;;;;6.83;4.20;;;;;21.90;101174.00;;;;2569367;23;20215;-60
2023/10/08 01:57:56;;;;;;;6.97;4.40;;;;;21.90;101164.00;;;;2562715;23;20213;-60
2023/10/08 01:58:56;;;;;;;11.13;5.77;;;;;21.90;101164.00;;;;2564900;23;20208;-59
2023/10/08 01:59:57;;;;;;;7.53;4.60;;;;;21.90;101173.00;;;;2577681;23;20901;-61
2023/10/08 02:00:59;;;;;;;5.87;4.30;;;;;21.90;101161.00;;;;2577309;23;20662;-60
2023/10/08 02:02:00;;;;;;;5.72;4.57;;;;;21.90;101161.00;;;;2563329;23;20213;-60
2023/10/08 02:03:01;;;;;;;6.07;4.70;;;;;21.90;101180.00;;;;2565009;23;20203;-60
2023/10/08 02:04:01;;;;;;;8.02;5.00;;;;;21.90;101183.00;;;;2553011;23;20235;-59
2023/10/08 02:05:04;;;;;;;6.10;4.30;;;;;21.90;101185.00;;;;2564603;23;20247;-60
2023/10/08 02:06:06;;;;;;;6.22;4.60;;;;;21.90;101190.00;;;;2565126;23;20197;-59
2023/10/08 02:07:12;;;;;;;6.63;4.25;;;;;21.90;101185.00;;;;2550555;23;20206;-60
2023/10/08 02:08:13;;;;;;;4.95;4.35;;;;;21.90;101199.00;;;;2565274;23;20192;-59
2023/10/08 02:09:15;;;;;;;7.00;4.90;;;;;21.90;101187.00;;;;2540592;23;21003;-60
2023/10/08 02:10:15;;;;;;;6.55;4.70;;;;;21.90;101177.00;;;;2552635;23;20519;-60
2023/10/08 02:11:15;;;;;;;6.20;4.13;;;;;21.90;101178.00;;;;2577813;23;20184;-60
2023/10/08 02:12:16;;;;;;;7.60;4.70;;;;;21.90;101176.00;;;;2525419;23;20253;-60
2023/10/08 02:13:17;;;;;;;7.07;4.70;;;;;21.90;101179.00;;;;2524639;23;20195;-60
2023/10/08 02:14:18;;;;;;;5.63;4.47;;;;;21.90;101183.00;;;;2551759;23;20193;-60
2023/10/08 02:15:19;;;;;;;7.20;4.60;;;;;21.90;101181.00;;;;2540875;23;20546;-60
2023/10/08 02:16:19;;;;;;;5.63;4.33;;;;;21.90;101174.00;;;;2564292;23;20197;-60
2023/10/08 02:17:20;;;;;;;6.07;4.47;;;;;21.90;101168.00;;;;2563622;23;20257;-60
2023/10/08 02:18:20;;;;;;;6.00;4.53;;;;;21.90;101174.00;;;;2578555;23;20199;-61
2023/10/08 02:19:26;;;;;;;9.50;5.03;;;;;21.90;101177.00;;;;2577810;23;20200;-60
2023/10/08 02:20:27;;;;;;;6.72;3.90;;;;;21.90;101183.00;;;;2577777;23;20223;-60
2023/10/08 02:21:27;;;;;;;6.47;4.43;;;;;21.90;101178.00;;;;2577184;23;20227;-61
2023/10/08 02:22:29;;;;;;;6.30;4.00;;;;;21.90;101179.00;;;;2562284;23;20196;-59
2023/10/08 02:23:29;;;;;;;5.65;4.40;;;;;21.90;101160.00;;;;2576934;23;20630;-61
2023/10/08 02:24:30;;;;;;;7.70;4.43;;;;;21.80;101153.00;;;;2564217;23;20243;-60
2023/10/08 02:25:30;;;;;;;5.00;3.90;;;;;21.80;101164.00;;;;2564637;23;20185;-59
2023/10/08 02:26:30;;;;;;;6.50;3.63;;;;;21.80;101175.00;;;;2578309;23;20196;-60
2023/10/08 02:27:34;;;;;;;6.60;4.10;;;;;21.80;101162.00;;;;2562247;23;20200;-60
2023/10/08 02:28:34;;;;;;;8.60;4.85;;;;;21.90;101157.00;;;;2577595;23;20203;-60
2023/10/08 02:29:35;;;;;;;6.93;4.40;;;;;21.90;101166.00;;;;2578046;23;20198;-59
2023/10/08 02:30:39;;;;;;;5.67;4.27;;;;;21.90;101173.00;;;;2577442;23;20192;-59
2023/10/08 02:31:39;;;;;;;5.28;4.05;;;;;21.90;101162.00;;;;2540027;23;20240;-60
2023/10/08 02:32:42;;;;;;;5.70;4.20;;;;;21.90;101137.00;;;;2524335;23;20893;-60
2023/10/08 02:33:43;;;;;;;6.30;4.38;;;;;21.80;101138.00;;;;2565016;23;20263;-60
2023/10/08 02:34:44;;;;;;;6.45;4.22;;;;;21.80;101135.00;;;;2565875;23;22451;-60
2023/10/08 02:35:46;;;;;;;6.83;4.20;;;;;21.80;101132.00;;;;2577882;23;20230;-59
2023/10/08 02:36:49;;;;;;;5.18;3.75;;;;;21.80;101121.00;;;;2564567;23;20490;-60
2023/10/08 02:37:50;;;;;;;6.97;4.60;;;;;21.90;101118.00;;;;2550418;23;20247;-61
2023/10/08 02:38:50;;;;;;;6.30;3.93;;;;;21.90;101108.00;;;;2578083;23;20207;-60
2023/10/08 02:39:51;;;;;;;7.03;3.93;;;;;21.90;101110.00;;;;2577237;23;20231;-60
2023/10/08 02:40:54;;;;;;;6.77;4.30;;;;;21.80;101107.00;;;;2564610;23;20204;-60
2023/10/08 02:41:58;;;;;;;6.45;4.20;;;;;21.90;101105.00;;;;2563562;23;20212;-65
2023/10/08 02:42:58;;;;;;;5.18;4.20;;;;;21.90;101141.00;;;;2563585;23;20197;-61
2023/10/08 02:43:59;;;;;;;8.27;4.60;;;;;21.90;101147.00;;;;2565663;23;20264;-61
2023/10/08 02:45:02;;;;;;;5.93;3.83;;;;;21.90;101154.00;;;;2577667;23;20192;-61
2023/10/08 02:46:06;;;;;;;5.90;4.20;;;;;21.90;101166.00;;;;2578063;23;20230;-60
2023/10/08 02:47:09;;;;;;;6.03;3.67;;;;;21.80;101161.00;;;;2562837;23;20538;-59
2023/10/08 02:48:12;;;;;;;5.93;3.78;;;;;21.80;101163.00;;;;2565014;23;20882;-59
2023/10/08 02:49:16;;;;;;;6.60;4.03;;;;;21.80;101167.00;;;;2565129;23;20280;-61
2023/10/08 02:50:17;;;;;;;6.50;4.25;;;;;21.80;101157.00;;;;2564438;23;20274;-60
2023/10/08 02:51:20;;;;;;;6.30;4.00;;;;;21.80;101146.00;;;;2564066;23;20197;-59
2023/10/08 02:52:21;;;;;;;6.20;4.28;;;;;21.80;101137.00;;;;2560827;23;20431;-60
2023/10/08 02:53:25;;;;;;;8.40;4.83;;;;;21.90;101136.00;;;;2577288;23;20708;-60
2023/10/08 02:54:32;;;;;;;7.18;4.30;;;;;21.80;101120.00;;;;2576963;23;20271;-59
2023/10/08 02:55:35;;;;;;;5.20;4.05;;;;;21.80;101126.00;;;;2564840;23;20201;-61
2023/10/08 02:56:35;;;;;;;8.20;4.60;;;;;21.80;101137.00;;;;2553935;23;20207;-59
2023/10/08 02:57:35;;;;;;;6.50;4.40;;;;;21.80;101145.00;;;;2549505;23;20849;-59
2023/10/08 02:58:36;;;;;;;5.23;3.63;;;;;21.80;101155.00;;;;2577127;23;20552;-59
2023/10/08 02:59:40;;;;;;;6.00;4.00;;;;;21.80;101231.00;;;;2575225;23;20823;-61
2023/10/08 03:00:46;;;;;;;6.78;4.22;;;;;21.80;101179.00;;;;2564704;23;20184;-60
2023/10/08 03:01:49;;;;;;;7.28;4.68;;;;;21.80;101188.00;;;;2554129;23;20213;-60
2023/10/08 03:02:51;;;;;;;7.70;4.68;;;;;21.80;101192.00;;;;2538632;23;20224;-60
2023/10/08 03:04:02;;;;;;;5.50;4.13;;;;;21.80;101187.00;;;;2565919;23;20200;-59
2023/10/08 03:05:06;;;;;;;6.30;4.20;;;;;21.80;101195.00;;;;2564457;23;20204;-60
2023/10/08 03:06:11;;;;;;;5.57;4.18;;;;;21.80;101201.00;;;;2566799;23;20197;-60
2023/10/08 03:07:21;;;;;;;5.32;3.78;;;;;21.80;101188.00;;;;2562945;23;20533;-60
2023/10/08 03:08:21;;;;;;;6.40;4.30;;;;;21.80;101182.00;;;;2565015;23;20197;-60
2023/10/08 03:09:26;;;;;;;6.40;4.40;;;;;21.80;101184.00;;;;2553662;23;20209;-60
2023/10/08 03:10:32;;;;;;;7.15;4.60;;;;;21.80;101204.00;;;;2552942;23;20588;-59
2023/10/08 03:11:35;;;;;;;5.25;4.28;;;;;21.80;101205.00;;;;2566480;23;20645;-59
2023/10/08 03:12:36;;;;;;;4.35;3.75;;;;;21.80;101198.00;;;;2562326;23;20192;-60
2023/10/08 03:13:38;;;;;;;7.67;4.73;;;;;21.80;101209.00;;;;2577110;23;20207;-60
2023/10/08 03:14:49;;;;;;;5.38;3.85;;;;;21.80;101199.00;;;;2578372;23;20661;-60
2023/10/08 03:17:07;;;;;;;7.45;4.15;;;;;21.80;101063.00;;;;2550023;23;20197;-60
2023/10/08 03:18:14;;;;;;;5.93;4.25;;;;;21.80;101197.00;;;;2578022;23;20866;-59
2023/10/08 03:19:14;;;;;;;5.40;4.10;;;;;21.80;101193.00;;;;2577289;23;20192;-60
2023/10/08 03:20:29;;;;;;;6.27;4.27;;;;;21.80;101194.00;;;;2564864;23;20200;-60
2023/10/08 03:22:42;;;;;;;7.60;4.25;;;;;21.80;101228.00;;;;2549323;23;20267;-60
2023/10/08 03:23:50;;;;;;;7.38;4.43;;;;;21.80;101224.00;;;;2567356;23;20204;-60
2023/10/08 03:24:51;;;;;;;8.07;5.10;;;;;21.80;101221.00;;;;2565005;23;20279;-60
2023/10/08 03:26:33;;;;;;;6.50;4.18;;;;;21.80;101233.00;;;;2564945;23;20203;-60
2023/10/08 03:27:26;;;;;;;6.85;4.00;;;;;21.80;101229.00;;;;2556343;23;20710;-60
2023/10/08 03:28:29;;;;;;;5.68;4.35;;;;;21.80;101220.00;;;;2563781;23;20193;-60
2023/10/08 03:29:30;;;;;;;7.05;4.47;;;;;21.80;101219.00;;;;2541409;23;20191;-61
2023/10/08 03:30:30;;;;;;;5.30;3.80;;;;;21.80;101222.00;;;;2551676;23;20209;-59
2023/10/08 03:31:49;;;;;;;6.70;4.37;;;;;21.80;101222.00;;;;2578406;23;20211;-59
2023/10/08 03:32:55;;;;;;;5.72;3.70;;;;;21.80;101200.00;;;;2561729;23;20192;-60
2023/10/08 03:33:55;;;;;;;6.47;4.35;;;;;21.80;101197.00;;;;2578715;23;20653;-60
2023/10/08 03:34:56;;;;;;;7.57;4.40;;;;;21.80;101198.00;;;;2565301;23;20258;-60
2023/10/08 03:35:56;;;;;;;6.60;4.20;;;;;21.80;101233.00;;;;2565991;23;20252;-60
2023/10/08 03:37:05;;;;;;;7.10;4.00;;;;;21.80;101204.00;;;;2564201;23;20196;-60
2023/10/08 03:38:21;;;;;;;5.75;3.70;;;;;21.80;101200.00;;;;2578563;23;20638;-60
2023/10/08 03:39:23;;;;;;;6.85;4.57;;;;;21.80;101198.00;;;;2578690;23;20265;-59
2023/10/08 03:40:42;;;;;;;5.75;3.88;;;;;21.80;101194.00;;;;2578646;23;20533;-60
2023/10/08 03:41:51;;;;;;;5.60;4.07;;;;;21.80;101192.00;;;;2578707;23;20956;-60
2023/10/08 03:42:55;;;;;;;6.03;4.43;;;;;21.80;101193.00;;;;2563289;23;20530;-61
2023/10/08 03:44:01;;;;;;;6.55;5.15;;;;;21.80;101188.00;;;;2578161;23;20283;-61
2023/10/08 03:45:10;;;;;;;5.32;3.95;;;;;21.80;101188.00;;;;2578564;23;20207;-60
2023/10/08 03:46:15;;;;;;;6.03;4.20;;;;;21.80;101176.00;;;;2579005;23;20219;-59
2023/10/08 03:47:18;;;;;;;7.82;4.57;;;;;21.80;101182.00;;;;2544940;23;20403;-60
2023/10/08 03:48:22;;;;;;;4.97;3.95;;;;;21.80;101170.00;;;;2565816;23;20316;-59
2023/10/08 03:50:32;;;;;;;4.87;3.90;;;;;21.80;101177.00;;;;2552884;23;20193;-59
2023/10/08 03:51:39;;;;;;;6.28;4.30;;;;;21.30;101162.00;;;;2556316;23;20597;-59
2023/10/08 03:52:39;;;;;;;6.40;4.40;;;;;21.80;101153.00;;;;2549977;23;20217;-60
2023/10/08 03:53:58;;;;;;;9.10;4.10;;;;;21.80;101192.00;;;;2553528;23;20228;-60
2023/10/08 03:55:20;;;;;;;8.98;4.50;;;;;21.80;101171.00;;;;2569278;23;20224;-60
2023/10/08 03:56:20;;;;;;;6.05;4.03;;;;;21.80;101163.00;;;;2578351;23;20200;-60
2023/10/08 03:57:41;;;;;;;6.17;3.97;;;;;21.80;101188.00;;;;2550508;23;20228;-60
2023/10/08 03:58:46;;;;;;;5.28;3.60;;;;;21.80;101168.00;;;;2556495;23;20220;-59
2023/10/08 03:59:48;;;;;;;6.40;3.85;;;;;21.80;101177.00;;;;2570627;23;20200;-60
2023/10/08 04:00:49;;;;;;;6.72;4.05;;;;;21.80;101184.00;;;;2578105;23;20219;-60
2023/10/08 04:01:54;;;;;;;5.77;4.37;;;;;21.80;101171.00;;;;2578296;23;20232;-60
2023/10/08 04:02:55;;;;;;;5.72;3.75;;;;;21.80;101171.00;;;;2537343;23;20193;-60
2023/10/08 04:03:59;;;;;;;5.55;3.38;;;;;21.50;101195.00;;;;2554060;23;20636;-61
2023/10/08 04:04:59;;;;;;;4.75;3.70;;;;;21.80;101196.00;;;;2576374;23;20196;-60
2023/10/08 04:06:14;;;;;;;6.17;4.00;;;;;21.80;101203.00;;;;2552860;23;20204;-60
2023/10/08 04:07:24;;;;;;;5.15;3.60;;;;;21.80;101235.00;;;;2552322;23;20201;-60
2023/10/08 04:08:42;;;;;;;5.72;3.63;;;;;21.80;101228.00;;;;2565198;23;20220;-59
2023/10/08 04:09:42;;;;;;;5.00;3.92;;;;;21.80;101215.00;;;;2569900;23;20196;-59
2023/10/08 04:11:53;;;;;;;5.30;3.80;;;;;21.80;101202.00;;;;2552520;23;20641;-60
2023/10/08 04:12:53;;;;;;;7.50;3.95;;;;;21.80;101184.00;;;;2539516;23;20213;-60
2023/10/08 04:13:54;;;;;;;10.13;4.17;;;;;21.80;101196.00;;;;2567199;23;20196;-60
2023/10/08 04:14:55;;;;;;;6.20;4.20;;;;;21.80;101218.00;;;;2565026;23;20205;-60
2023/10/08 04:15:56;;;;;;;9.10;3.95;;;;;21.80;101209.00;;;;2552677;23;21048;-64
2023/10/08 04:16:58;;;;;;;5.90;4.47;;;;;21.80;101210.00;;;;2553660;23;20209;-61
2023/10/08 04:18:02;;;;;;;5.90;4.28;;;;;21.80;101224.00;;;;2564999;23;20276;-60
2023/10/08 04:19:03;;;;;;;6.22;3.60;;;;;21.80;101236.00;;;;2565937;23;20201;-59
2023/10/08 04:20:30;;;;;;;7.43;4.00;;;;;21.80;101217.00;;;;2578500;23;20310;-60
2023/10/08 04:21:27;;;;;;;8.20;4.03;;;;;21.80;101209.00;;;;2564368;23;20200;-60
2023/10/08 04:22:28;;;;;;;6.80;4.03;;;;;21.80;101218.00;;;;2554213;23;20283;-60
2023/10/08 04:23:29;;;;;;;5.97;3.97;;;;;21.80;101205.00;;;;2576775;23;20196;-60
2023/10/08 04:24:35;;;;;;;5.45;3.50;;;;;21.80;101210.00;;;;2565164;23;20247;-60
2023/10/08 04:25:36;;;;;;;7.45;4.43;;;;;21.80;101209.00;;;;2566359;23;20197;-59
2023/10/08 04:26:39;;;;;;;7.33;4.30;;;;;21.80;101216.00;;;;2578662;23;20192;-60
2023/10/08 04:27:39;;;;;;;6.90;4.55;;;;;21.80;101216.00;;;;2563574;23;20291;-60
2023/10/08 04:28:41;;;;;;;6.07;4.30;;;;;21.70;101214.00;;;;2577862;23;20630;-60
2023/10/08 04:29:42;;;;;;;6.15;3.60;;;;;21.80;101214.00;;;;2565343;23;20199;-60
2023/10/08 04:30:45;;;;;;;6.32;3.90;;;;;21.80;101212.00;;;;2564794;23;20297;-60
2023/10/08 04:31:46;;;;;;;6.00;4.05;;;;;21.70;101207.00;;;;2578662;23;20275;-61
2023/10/08 04:32:46;;;;;;;5.25;3.80;;;;;21.80;101198.00;;;;2562182;23;20274;-60
2023/10/08 04:33:47;;;;;;;5.90;4.37;;;;;21.80;101205.00;;;;2578624;23;20670;-60
2023/10/08 04:34:49;;;;;;;6.30;5.00;;;;;21.70;101216.00;;;;2578502;23;20192;-60
2023/10/08 04:35:55;;;;;;;6.43;4.20;;;;;21.70;101238.00;;;;2578500;23;20203;-60
2023/10/08 04:37:00;;;;;;;7.72;3.90;;;;;21.70;101222.00;;;;2573654;23;20198;-60
2023/10/08 04:38:02;;;;;;;5.25;3.88;;;;;21.80;101228.00;;;;2577449;23;20199;-60
2023/10/08 04:39:12;;;;;;;7.55;3.95;;;;;21.80;101211.00;;;;2578155;23;20196;-60
2023/10/08 04:40:16;;;;;;;6.72;4.15;;;;;21.70;101216.00;;;;2578023;23;20195;-60
2023/10/08 04:41:19;;;;;;;6.68;4.60;;;;;21.80;101214.00;;;;2578557;23;20199;-60
2023/10/08 04:42:25;;;;;;;6.20;4.28;;;;;21.70;101221.00;;;;2562861;23;20200;-59
2023/10/08 04:43:27;;;;;;;6.57;4.28;;;;;21.70;101216.00;;;;2577992;23;20192;-61
2023/10/08 04:44:31;;;;;;;5.53;3.80;;;;;21.70;101225.00;;;;2564069;23;20239;-61
2023/10/08 04:45:34;;;;;;;6.65;4.05;;;;;21.70;101232.00;;;;2566158;23;20197;-59
2023/10/08 04:46:46;;;;;;;8.30;4.15;;;;;21.70;101233.00;;;;2578452;23;20196;-60
2023/10/08 04:47:49;;;;;;;8.02;4.45;;;;;21.70;101238.00;;;;2562938;23;20753;-59
2023/10/08 04:48:49;;;;;;;9.32;4.38;;;;;21.70;101241.00;;;;2578011;23;20192;-60
2023/10/08 04:49:53;;;;;;;7.90;4.57;;;;;21.80;101237.00;;;;2578230;23;20218;-60
2023/10/08 04:50:59;;;;;;;5.53;3.80;;;;;21.70;101220.00;;;;2578117;23;20196;-60
2023/10/08 04:52:13;;;;;;;6.28;4.07;;;;;21.70;101213.00;;;;2562413;23;20764;-60
2023/10/08 04:53:15;;;;;;;5.82;4.03;;;;;21.70;101212.00;;;;2577866;23;20207;-60
2023/10/08 04:54:16;;;;;;;7.65;3.92;;;;;21.70;101202.00;;;;2578035;23;20192;-60
2023/10/08 04:55:20;;;;;;;5.33;3.87;;;;;21.70;101203.00;;;;2565218;23;20773;-60
2023/10/08 04:56:22;;;;;;;5.53;3.80;;;;;21.20;101206.00;;;;2565325;23;20255;-59
2023/10/08 04:57:25;;;;;;;4.82;3.50;;;;;21.70;101214.00;;;;2563740;23;20196;-59
2023/10/08 04:58:33;;;;;;;6.15;4.32;;;;;21.70;101207.00;;;;2578107;23;20203;-60
2023/10/08 04:59:33;;;;;;;5.15;3.65;;;;;21.70;101218.00;;;;2578079;23;20243;-60
2023/10/08 05:00:53;;;;;;;4.90;3.40;;;;;21.70;101224.00;;;;2578395;23;20192;-59
2023/10/08 05:02:13;;;;;;;6.78;4.25;;;;;21.70;101229.00;;;;2565066;23;20205;-60
2023/10/08 05:03:16;;;;;;;9.27;4.53;;;;;21.70;101228.00;;;;2572437;23;20196;-60
2023/10/08 05:04:45;;;;;;;5.75;4.03;;;;;21.70;101233.00;;;;2565071;23;20189;-60
2023/10/08 05:07:17;;;;;;;6.13;3.97;;;;;21.70;101263.00;;;;2549385;23;20942;-60
2023/10/08 05:08:28;;;;;;;5.20;3.85;;;;;21.70;101257.00;;;;2559089;23;20243;-60
2023/10/08 05:11:24;;;;;;;5.82;3.63;;;;;21.70;101271.00;;;;2514906;23;20521;-59
2023/10/08 05:14:02;;;;;;;7.85;4.18;;;;;21.70;101276.00;;;;2515393;23;20230;-60
2023/10/08 05:16:36;;;;;;;6.05;3.72;;;;;21.70;101269.00;;;;2527205;23;20203;-60
2023/10/08 05:17:56;;;;;;;4.88;3.50;;;;;21.70;101268.00;;;;2556915;23;20192;-60
2023/10/08 05:19:24;;;;;;;8.40;4.57;;;;;21.70;101268.00;;;;2574058;23;20192;-59
2023/10/08 05:21:51;;;;;;;4.30;3.22;;;;;21.70;101275.00;;;;2577741;23;20196;-60
2023/10/08 05:23:20;;;;;;;5.10;3.72;;;;;21.70;101283.00;;;;2549512;23;20189;-59
2023/10/08 05:24:27;;;;;;;6.55;3.95;;;;;21.70;101279.00;;;;2572047;23;20199;-60
2023/10/08 05:25:40;;;;;;;5.78;3.90;;;;;21.70;101276.00;;;;2578306;23;20253;-60
2023/10/08 05:26:59;;;;;;;7.95;3.90;;;;;21.70;101289.00;;;;2578487;23;20195;-59
2023/10/08 05:28:09;;;;;;;5.18;3.63;;;;;21.70;101279.00;;;;2577592;23;20651;-60
2023/10/08 05:30:28;;;;;;;7.47;3.78;;;;;21.70;101266.00;;;;2564305;23;20200;-60
2023/10/08 05:31:53;;;;;;;5.50;4.17;;;;;21.70;101265.00;;;;2544268;23;20198;-60